Time;durP1;ratioP1;P1;durP2;ratioP2;P2;SDS_P1;SDS_P2;PMS_P1;PMS_P2;Temp;Humidity;BMP_temperature;BMP_pressure;BME280_temperature;BME280_humidity;BME280_pressure;Samples;Min_cycle;Max_cycle;Signal;HPM_P1;HPM_P2
2022/06/20 00:02:23;;;;;;;7.10;5.50;;;;;;;15.35;85.58;94502.59;1748188;81;20966;-50
2022/06/20 00:04:54;;;;;;;10.50;5.00;;;;;;;15.22;85.67;94504.14;1748168;82;21490;-49
2022/06/20 00:07:24;;;;;;;8.18;5.65;;;;;;;15.14;86.13;94496.85;1748167;82;21033;-50
2022/06/20 00:09:53;;;;;;;9.00;5.30;;;;;;;15.12;86.44;94496.58;1748461;82;21496;-49
2022/06/20 00:12:24;;;;;;;8.40;6.08;;;;;;;15.11;86.43;94492.28;1748120;81;21033;-49
2022/06/20 00:14:56;;;;;;;7.83;5.00;;;;;;;15.09;86.44;94498.16;1748425;81;21493;-49
2022/06/20 00:17:24;;;;;;;8.98;5.22;;;;;;;15.08;86.52;94501.56;1748316;82;21203;-50
2022/06/20 00:19:52;;;;;;;11.12;5.42;;;;;;;15.07;86.71;94487.56;1748117;82;21529;-49
2022/06/20 00:22:21;;;;;;;9.30;5.47;;;;;;;15.06;86.81;94491.59;1748148;81;20992;-49
2022/06/20 00:24:51;;;;;;;7.55;5.65;;;;;;;15.04;87.28;94484.35;1748518;82;21010;-50
2022/06/20 00:27:19;;;;;;;8.40;5.60;;;;;;;15.00;87.44;94483.80;1748257;82;21588;-50
2022/06/20 00:29:47;;;;;;;5.95;4.90;;;;;;;14.96;87.73;94480.47;1748248;82;21532;-49
2022/06/20 00:32:15;;;;;;;8.28;5.15;;;;;;;14.96;87.55;94488.03;1748114;82;20986;-49
2022/06/20 00:34:43;;;;;;;7.78;4.80;;;;;;;14.91;87.43;94479.77;1748175;81;20977;-50
2022/06/20 00:37:16;;;;;;;8.43;5.50;;;;;;;14.87;87.71;94483.37;1748242;81;21048;-49
2022/06/20 00:39:43;;;;;;;7.60;5.78;;;;;;;14.83;87.78;94476.49;1728752;82;20973;-50
2022/06/20 00:42:12;;;;;;;10.18;5.15;;;;;;;14.79;87.76;94469.76;1748218;82;21732;-48
2022/06/20 00:44:46;;;;;;;7.30;5.00;;;;;;;14.77;87.85;94463.16;1748080;81;21508;-49
2022/06/20 00:47:19;;;;;;;9.45;5.30;;;;;;;14.73;87.29;94457.84;1727624;82;20949;-49
2022/06/20 00:50:09;;;;;;;7.72;5.30;;;;;;;14.67;87.18;94455.59;1748209;81;20957;-49
2022/06/20 00:52:49;;;;;;;9.33;5.58;;;;;;;14.63;87.10;94459.19;1748309;81;21555;-49
2022/06/20 00:55:31;;;;;;;6.50;5.17;;;;;;;14.57;87.10;94454.80;1734769;81;21266;-49
2022/06/20 00:58:07;;;;;;;7.87;5.47;;;;;;;14.56;87.56;94459.59;1748190;82;21080;-49
2022/06/20 01:00:37;;;;;;;6.97;4.62;;;;;;;14.59;87.92;94450.95;1748182;82;21426;-50
2022/06/20 01:03:11;;;;;;;7.33;5.10;;;;;;;14.63;87.95;94445.34;1748210;82;21513;-50
2022/06/20 01:06:04;;;;;;;9.08;5.35;;;;;;;14.57;87.19;94447.27;1727833;82;20997;-50
2022/06/20 01:08:42;;;;;;;8.73;5.35;;;;;;;14.51;87.02;94447.03;1748252;82;21278;-49
2022/06/20 01:11:22;;;;;;;6.87;5.95;;;;;;;14.46;87.94;94457.41;1748441;82;21072;-50
2022/06/20 01:13:50;;;;;;;7.90;5.28;;;;;;;14.43;88.25;94450.67;1746661;81;21029;-49
2022/06/20 01:16:26;;;;;;;11.25;5.25;;;;;;;14.41;88.14;94448.39;1727923;82;20970;-50
2022/06/20 01:18:54;;;;;;;6.40;5.20;;;;;;;14.40;87.96;94444.08;1748739;82;21002;-51
2022/06/20 01:21:35;;;;;;;5.58;5.08;;;;;;;14.38;87.90;94447.95;1748562;82;21113;-50
2022/06/20 01:24:23;;;;;;;8.30;5.25;;;;;;;14.37;87.91;94453.98;1748084;81;21017;-50
2022/06/20 01:27:32;;;;;;;6.15;4.92;;;;;;;14.34;87.77;94453.55;1748138;82;21053;-49
2022/06/20 01:30:01;;;;;;;12.33;5.10;;;;;;;14.32;87.41;94456.04;1694259;84;21021;-49
2022/06/20 01:32:30;;;;;;;8.10;5.40;;;;;;;14.27;87.39;94447.00;1694401;83;21033;-49
2022/06/20 01:34:59;;;;;;;8.33;5.55;;;;;;;14.27;87.68;94444.23;1722903;82;21746;-49
2022/06/20 01:37:27;;;;;;;6.30;5.42;;;;;;;14.27;87.76;94447.78;1748058;82;20950;-50
2022/06/20 01:40:00;;;;;;;7.47;5.67;;;;;;;14.23;87.62;94443.06;1748031;81;20949;-50
2022/06/20 01:42:28;;;;;;;9.15;6.85;;;;;;;14.24;87.95;94447.96;1735519;82;20966;-50
2022/06/20 01:45:57;;;;;;;11.73;6.70;;;;;;;14.25;88.27;94448.10;1735553;82;20967;-50
2022/06/20 01:47:36;;;;;;;12.78;8.53;;;;;;;14.19;88.42;94434.17;1732699;82;21268;-50
2022/06/20 01:50:06;;;;;;;15.75;9.85;;;;;;;14.19;88.62;94435.55;1735561;82;21389;-48
2022/06/20 01:52:37;;;;;;;12.82;7.40;;;;;;;14.18;88.46;94440.20;1735769;82;20950;-48
2022/06/20 01:55:15;;;;;;;9.58;6.45;;;;;;;14.14;88.44;94439.59;1734748;82;20959;-50
2022/06/20 01:57:46;;;;;;;12.63;7.25;;;;;;;14.07;88.90;94444.11;1735535;82;20986;-49
2022/06/20 02:00:17;;;;;;;10.43;7.10;;;;;;;14.05;89.29;94435.53;1735810;82;21892;-49
2022/06/20 02:02:55;;;;;;;9.40;6.37;;;;;;;14.05;89.51;94432.77;1735439;82;20982;-49
2022/06/20 02:05:26;;;;;;;7.58;5.83;;;;;;;14.04;89.10;94438.16;1735664;82;20986;-50
2022/06/20 02:07:54;;;;;;;13.65;7.15;;;;;;;13.98;88.77;94435.92;1735545;82;20974;-50
2022/06/20 02:10:42;;;;;;;13.08;7.65;;;;;;;13.93;89.04;94439.33;1735695;82;21494;-48
2022/06/20 02:13:10;;;;;;;10.95;5.92;;;;;;;13.88;89.49;94433.08;1710731;82;21159;-50
2022/06/20 02:15:38;;;;;;;7.70;5.08;;;;;;;13.89;89.83;94444.29;1735508;82;21426;-50
2022/06/20 02:18:07;;;;;;;9.10;5.03;;;;;;;13.89;89.23;94440.14;1735419;82;21037;-50
2022/06/20 02:20:45;;;;;;;8.30;5.47;;;;;;;13.83;88.72;94443.44;1735882;82;21430;-50
2022/06/20 02:23:09;;;;;;;7.62;5.58;;;;;;;13.76;88.74;94445.17;1735103;82;21544;-49
2022/06/20 02:25:37;;;;;;;10.78;5.20;;;;;;;13.76;88.93;94448.71;1736070;82;21801;-50
2022/06/20 02:28:10;;;;;;;11.22;7.60;;;;;;;13.79;88.94;94445.63;1735376;82;20946;-50
2022/06/20 02:30:38;;;;;;;13.10;8.05;;;;;;;13.80;88.92;94447.15;1735694;82;21102;-49
2022/06/20 02:33:14;;;;;;;9.33;6.80;;;;;;;13.81;89.18;94445.91;1735591;82;20946;-50
2022/06/20 02:35:42;;;;;;;8.73;6.67;;;;;;;13.83;88.72;94446.20;1735412;82;20982;-50
2022/06/20 02:38:10;;;;;;;12.65;7.37;;;;;;;13.77;88.26;94446.70;1735407;82;21202;-50
2022/06/20 02:40:41;;;;;;;10.25;6.85;;;;;;;13.76;88.57;94445.17;1737049;82;21391;-49
2022/06/20 02:43:21;;;;;;;12.15;6.00;;;;;;;13.75;88.37;94446.41;1747697;82;21001;-49
2022/06/20 02:45:49;;;;;;;10.08;6.20;;;;;;;13.72;88.31;94446.75;1747797;81;21072;-48
2022/06/20 02:48:18;;;;;;;15.93;6.92;;;;;;;13.72;88.45;94444.59;1747590;82;20989;-48
2022/06/20 02:50:51;;;;;;;12.73;6.90;;;;;;;13.74;88.85;94447.05;1747538;82;21418;-49
2022/06/20 02:53:42;;;;;;;10.63;6.53;;;;;;;13.79;88.70;94440.84;1747788;82;21017;-48
2022/06/20 02:56:16;;;;;;;9.83;6.80;;;;;;;13.82;88.56;94438.51;1718846;82;21084;-48
2022/06/20 02:58:50;;;;;;;14.07;7.90;;;;;;;13.85;88.71;94434.04;1747654;82;20993;-50
2022/06/20 03:01:38;;;;;;;10.32;7.05;;;;;;;13.84;89.02;94436.66;1747951;81;20957;-49
2022/06/20 03:04:07;;;;;;;13.08;6.97;;;;;;;13.85;89.11;94435.42;1747540;82;21262;-49
2022/06/20 03:06:44;;;;;;;11.28;6.80;;;;;;;13.84;89.27;94433.27;1747498;82;20986;-49
2022/06/20 03:09:15;;;;;;;8.25;5.78;;;;;;;13.87;89.12;94427.41;1747560;81;20998;-50
2022/06/20 03:11:42;;;;;;;11.03;6.17;;;;;;;13.90;88.99;94431.98;1747904;82;20989;-50
2022/06/20 03:14:15;;;;;;;9.65;5.35;;;;;;;13.90;88.76;94427.84;1747473;82;21064;-49
2022/06/20 03:16:43;;;;;;;12.45;5.47;;;;;;;13.87;88.51;94431.56;1747801;82;21776;-49
2022/06/20 03:19:16;;;;;;;9.18;5.70;;;;;;;13.78;88.40;94433.05;1747453;82;21056;-49
2022/06/20 03:21:44;;;;;;;7.42;6.30;;;;;;;13.69;88.61;94426.20;1747212;82;20997;-49
2022/06/20 03:24:16;;;;;;;7.25;5.25;;;;;;;13.65;88.83;94427.01;1747488;82;21032;-50
2022/06/20 03:26:45;;;;;;;14.93;5.60;;;;;;;13.60;89.23;94425.66;1747886;81;21043;-48
2022/06/20 03:29:15;;;;;;;10.43;5.65;;;;;;;13.64;89.57;94424.10;1747673;82;21127;-51
2022/06/20 03:31:43;;;;;;;11.48;6.40;;;;;;;13.71;89.76;94423.11;1747887;81;20976;-49
2022/06/20 03:34:12;;;;;;;12.63;6.12;;;;;;;13.77;89.94;94425.95;1747685;82;21025;-50
2022/06/20 03:36:41;;;;;;;12.85;6.17;;;;;;;13.81;90.01;94425.17;1747695;81;21516;-49
2022/06/20 03:39:09;;;;;;;10.90;7.17;;;;;;;13.88;90.07;94428.33;1747655;81;20966;-49
2022/06/20 03:41:37;;;;;;;13.08;5.75;;;;;;;13.96;90.01;94423.94;1747811;82;21481;-49
2022/06/20 03:44:12;;;;;;;10.40;7.85;;;;;;;14.04;89.98;94421.56;1747696;82;21406;-49
2022/06/20 03:46:53;;;;;;;9.55;7.60;;;;;;;14.05;89.84;94419.71;1747670;82;21069;-48
2022/06/20 03:49:25;;;;;;;8.85;6.72;;;;;;;14.12;89.74;94419.31;1719261;82;21481;-49
2022/06/20 03:51:59;;;;;;;;;;;;;;;14.18;89.54;94416.05;1750028;81;21009;-48
2022/06/20 03:54:57;;;;;;;18.87;7.12;;;;;;;14.31;89.65;94412.97;1746971;82;21101;-47
2022/06/20 03:57:36;;;;;;;9.35;6.72;;;;;;;14.42;89.48;94400.71;1747602;82;20954;-50
2022/06/20 04:00:12;;;;;;;7.15;5.92;;;;;;;14.55;89.24;94401.31;1747744;82;20985;-48
2022/06/20 04:03:08;;;;;;;8.27;5.57;;;;;;;14.67;88.87;94407.13;1747975;81;20953;-50
2022/06/20 04:05:51;;;;;;;5.92;5.30;;;;;;;14.76;88.76;94400.11;1686119;83;21487;-49
2022/06/20 04:10:57;;;;;;;;;;;;;;;14.93;88.29;94408.64;1737542;82;21138;-49
2022/06/20 04:11:02;;;;;;;15.53;5.53;;;;;;;15.09;87.72;94390.87;1743981;81;20156;-50
2022/06/20 04:13:40;;;;;;;7.58;5.47;;;;;;;15.25;87.08;94395.86;1747896;82;21592;-50
2022/06/20 04:16:21;;;;;;;8.85;6.40;;;;;;;15.41;86.38;94393.17;1747700;81;21421;-49
2022/06/20 04:19:11;;;;;;;7.62;6.20;;;;;;;15.55;85.80;94394.47;1747887;82;21473;-51
2022/06/20 04:21:55;;;;;;;11.18;6.65;;;;;;;15.72;85.20;94383.57;1747022;81;21949;-49
2022/06/20 04:24:41;;;;;;;15.10;7.35;;;;;;;15.98;84.22;94393.42;1748017;82;21500;-49
2022/06/20 04:27:21;;;;;;;19.10;6.65;;;;;;;16.14;83.36;94379.55;1747920;81;21592;-50
2022/06/20 04:29:56;;;;;;;11.50;6.80;;;;;;;16.19;82.69;94384.39;1724624;82;21445;-52
2022/06/20 04:32:43;;;;;;;8.35;6.00;;;;;;;16.23;82.31;94377.37;1740960;82;20997;-52
2022/06/20 04:35:20;;;;;;;8.03;5.90;;;;;;;16.31;82.08;94375.66;1743588;82;21244;-52
2022/06/20 04:37:57;;;;;;;12.03;6.75;;;;;;;16.38;81.86;94376.64;1747689;81;21077;-51
2022/06/20 04:40:39;;;;;;;9.60;5.78;;;;;;;16.48;81.71;94377.97;1747695;82;20982;-50
2022/06/20 04:43:36;;;;;;;22.48;6.90;;;;;;;16.63;81.23;94378.58;1687794;83;20967;-55
2022/06/20 04:46:25;;;;;;;13.62;5.55;;;;;;;16.76;80.74;94371.98;1690966;82;21034;-56
2022/06/20 04:48:52;;;;;;;9.08;5.55;;;;;;;16.87;79.75;94370.67;1730550;82;21249;-55
2022/06/20 04:51:25;;;;;;;19.90;12.20;;;;;;;16.96;78.69;94371.85;1730459;82;20999;-52
2022/06/20 04:53:53;;;;;;;15.75;6.22;;;;;;;17.06;77.76;94373.18;1730556;82;21054;-51
2022/06/20 04:56:26;;;;;;;12.37;5.97;;;;;;;17.19;77.50;94367.92;1730559;82;20996;-50
2022/06/20 04:59:03;;;;;;;8.15;5.58;;;;;;;17.26;77.00;94364.04;1730889;82;20952;-50
2022/06/20 05:01:33;;;;;;;7.70;5.35;;;;;;;17.33;76.42;94366.98;1730555;83;21894;-50
2022/06/20 05:04:09;;;;;;;16.95;5.58;;;;;;;17.40;75.85;94362.34;1730796;83;21003;-51
2022/06/20 05:06:37;;;;;;;13.15;5.87;;;;;;;17.49;75.31;94363.53;1728917;82;20982;-50
2022/06/20 05:09:12;;;;;;;323.18;20.92;;;;;;;17.56;74.74;94358.25;1730563;82;21003;-49
2022/06/20 05:11:45;;;;;;;35.78;7.25;;;;;;;17.63;74.51;94358.40;1730800;82;21488;-50
2022/06/20 05:14:24;;;;;;;14.65;6.78;;;;;;;17.73;74.61;94354.11;1730207;82;21143;-50
2022/06/20 05:16:54;;;;;;;10.20;6.65;;;;;;;17.86;74.72;94355.14;1730640;82;20951;-53
2022/06/20 05:19:36;;;;;;;9.68;5.72;;;;;;;17.97;74.31;94357.21;1730873;82;21039;-51
2022/06/20 05:22:08;;;;;;;8.73;5.62;;;;;;;18.07;73.72;94345.95;1730502;83;21012;-49
2022/06/20 05:24:38;;;;;;;6.57;5.10;;;;;;;18.18;73.23;94348.88;1730458;82;21443;-51
2022/06/20 05:27:22;;;;;;;9.95;5.35;;;;;;;18.30;72.72;94345.48;1730404;83;21230;-50
2022/06/20 05:29:51;;;;;;;9.18;4.92;;;;;;;18.41;72.17;94350.42;1723667;82;21027;-50
2022/06/20 05:32:40;;;;;;;10.32;4.58;;;;;;;18.57;71.70;94349.66;1730502;82;21542;-49
2022/06/20 05:35:22;;;;;;;13.28;5.15;;;;;;;18.71;71.20;94345.84;1726803;82;21007;-50
2022/06/20 05:38:06;;;;;;;13.65;6.00;;;;;;;18.84;70.77;94339.09;1724642;82;21094;-51
2022/06/20 05:40:41;;;;;;;13.35;5.28;;;;;;;19.00;70.70;94340.34;1727722;82;21770;-50
2022/06/20 05:43:23;;;;;;;14.25;5.67;;;;;;;19.13;70.09;94332.16;1724024;81;21018;-50
2022/06/20 05:45:56;;;;;;;13.48;4.90;;;;;;;19.23;69.44;94342.55;1757141;81;21552;-51
2022/06/20 05:48:32;;;;;;;13.40;5.05;;;;;;;19.34;68.91;94341.12;1726337;82;21039;-50
2022/06/20 05:51:02;;;;;;;10.53;4.83;;;;;;;19.41;68.50;94340.58;1743360;80;21380;-52
2022/06/20 05:53:42;;;;;;;16.35;5.78;;;;;;;19.49;68.31;94331.03;1707971;81;21154;-50
2022/06/20 05:56:33;;;;;;;8.85;5.20;;;;;;;19.57;68.03;94327.19;1736616;81;21543;-53
2022/06/20 05:59:00;;;;;;;9.20;4.75;;;;;;;19.72;68.19;94327.63;1710488;83;21030;-52
2022/06/20 06:01:35;;;;;;;11.57;4.83;;;;;;;19.88;68.42;94330.95;1695343;82;21084;-50
2022/06/20 06:04:25;;;;;;;17.37;5.22;;;;;;;20.03;67.89;94318.84;1742302;81;21674;-50
2022/06/20 06:06:57;;;;;;;8.03;4.72;;;;;;;20.18;67.50;94322.03;1739173;80;21273;-51
2022/06/20 06:09:46;;;;;;;14.20;5.67;;;;;;;20.30;66.68;94319.25;1744542;81;21016;-53
2022/06/20 06:12:23;;;;;;;14.23;5.55;;;;;;;20.40;66.31;94320.45;1737262;81;21021;-55
2022/06/20 06:14:56;;;;;;;10.90;4.78;;;;;;;20.55;66.22;94318.04;1738210;80;21038;-56
2022/06/20 06:17:29;;;;;;;13.40;5.97;;;;;;;20.71;65.69;94317.13;1719697;82;21046;-56
2022/06/20 06:19:59;;;;;;;15.80;6.72;;;;;;;20.84;65.67;94313.08;1723877;81;21865;-50
2022/06/20 06:22:39;;;;;;;9.05;5.37;;;;;;;21.00;65.64;94312.14;1736191;81;21031;-50
2022/06/20 06:25:30;;;;;;;9.60;4.50;;;;;;;21.17;65.53;94313.49;1734905;81;21030;-51
2022/06/20 06:28:17;;;;;;;18.20;7.15;;;;;;;21.35;64.40;94305.01;1711165;82;21014;-53
2022/06/20 06:31:09;;;;;;;6.97;4.72;;;;;;;21.50;63.68;94299.08;1746229;80;21061;-50
2022/06/20 06:33:57;;;;;;;7.15;5.10;;;;;;;21.71;63.57;94297.95;1735867;81;21812;-52
2022/06/20 06:36:39;;;;;;;10.70;5.40;;;;;;;21.86;62.74;94287.79;1712851;82;21042;-51
2022/06/20 06:39:21;;;;;;;6.87;4.40;;;;;;;22.03;62.00;94286.16;1711526;83;21049;-53
2022/06/20 06:41:51;;;;;;;7.40;4.60;;;;;;;22.15;62.02;94282.66;1741157;80;21045;-52
2022/06/20 06:44:33;;;;;;;7.80;4.33;;;;;;;22.33;61.67;94277.65;1733491;81;21037;-52
2022/06/20 06:47:02;;;;;;;5.15;4.20;;;;;;;22.47;61.40;94271.56;1739599;81;21403;-54
2022/06/20 06:49:38;;;;;;;5.50;3.72;;;;;;;22.63;60.75;94264.91;1740714;81;21092;-54
2022/06/20 06:52:20;;;;;;;10.55;3.98;;;;;;;22.79;60.33;94262.46;1735525;81;21199;-52
2022/06/20 06:55:25;;;;;;;7.40;3.45;;;;;;;22.93;59.70;94259.78;1716937;82;21073;-51
2022/06/20 06:58:25;;;;;;;4.97;3.77;;;;;;;23.07;59.35;94257.72;1730805;81;21011;-53
2022/06/20 07:00:58;;;;;;;8.23;3.60;;;;;;;23.25;58.76;94259.69;1720659;82;21165;-52
2022/06/20 07:03:36;;;;;;;8.05;3.83;;;;;;;23.40;57.83;94258.49;1699826;82;21126;-51
2022/06/20 07:06:08;;;;;;;4.30;3.52;;;;;;;23.57;56.98;94257.49;1705842;81;21308;-51
2022/06/20 07:08:45;;;;;;;6.40;3.25;;;;;;;23.75;55.96;94258.73;1728619;81;21062;-53
2022/06/20 07:11:21;;;;;;;7.40;3.42;;;;;;;23.90;54.52;94251.91;1737235;80;21221;-58
2022/06/20 07:14:18;;;;;;;7.35;3.02;;;;;;;24.04;53.25;94237.92;1730450;81;21215;-58
2022/06/20 07:17:14;;;;;;;7.78;4.05;;;;;;;24.22;51.61;94238.38;1728625;82;21633;-59
2022/06/20 07:19:47;;;;;;;8.95;3.37;;;;;;;24.40;52.11;94238.83;1735132;81;21070;-58
2022/06/20 07:22:15;;;;;;;9.95;3.85;;;;;;;24.57;51.35;94239.20;1732579;81;21013;-59
2022/06/20 07:24:45;;;;;;;4.85;3.20;;;;;;;24.72;49.06;94230.87;1708672;81;21519;-57
2022/06/20 07:27:32;;;;;;;8.50;2.50;;;;;;;24.87;48.49;94235.19;1722428;81;21739;-58
2022/06/20 07:30:14;;;;;;;4.80;2.15;;;;;;;24.99;46.64;94227.32;1733504;80;20999;-57
2022/06/20 07:32:52;;;;;;;3.98;2.25;;;;;;;25.18;45.03;94224.23;1733629;80;21585;-58
2022/06/20 07:35:33;;;;;;;6.35;2.45;;;;;;;25.34;44.76;94219.55;1706255;82;21093;-52
2022/06/20 07:38:06;;;;;;;5.12;2.20;;;;;;;25.51;44.33;94221.89;1710668;82;21552;-51
2022/06/20 07:40:39;;;;;;;3.58;2.25;;;;;;;25.67;43.42;94215.02;1731658;81;22291;-55
2022/06/20 07:43:12;;;;;;;4.90;2.95;;;;;;;25.82;43.37;94220.70;1723928;81;21181;-51
2022/06/20 07:45:42;;;;;;;5.80;2.67;;;;;;;25.93;43.41;94216.24;1745477;81;20970;-54
2022/06/20 07:48:30;;;;;;;9.98;2.72;;;;;;;26.06;42.38;94211.09;1739704;81;21541;-53
2022/06/20 07:51:05;;;;;;;12.50;2.35;;;;;;;26.17;42.17;94218.57;1736539;81;21019;-54
2022/06/20 07:53:40;;;;;;;7.10;2.80;;;;;;;26.30;42.46;94214.15;1734068;81;21209;-54
2022/06/20 07:56:17;;;;;;;7.12;2.52;;;;;;;26.43;42.19;94211.16;1707139;82;21193;-52
2022/06/20 07:58:54;;;;;;;9.00;3.22;;;;;;;26.56;41.05;94212.42;1737882;81;21028;-52
2022/06/20 08:01:32;;;;;;;5.78;2.70;;;;;;;26.66;41.54;94211.20;1733696;81;21155;-52
2022/06/20 08:04:03;;;;;;;6.47;3.75;;;;;;;26.76;41.12;94216.36;1738859;80;21230;-54
2022/06/20 08:06:51;;;;;;;9.55;3.75;;;;;;;26.88;40.77;94218.90;1668085;83;21219;-60
2022/06/20 08:09:40;;;;;;;11.18;5.50;;;;;;;26.95;41.79;94220.30;1671974;82;21525;-57
2022/06/20 08:12:37;;;;;;;6.92;3.52;;;;;;;27.07;40.50;94208.69;1732135;81;21129;-51
2022/06/20 08:15:11;;;;;;;6.40;2.47;;;;;;;27.17;40.31;94219.54;1669301;82;21135;-52
2022/06/20 08:17:40;;;;;;;17.67;3.27;;;;;;;27.23;39.72;94211.61;1680779;83;21031;-53
2022/06/20 08:20:10;;;;;;;5.35;2.87;;;;;;;27.30;39.51;94205.20;1684720;83;21248;-53
2022/06/20 08:22:50;;;;;;;5.62;2.72;;;;;;;27.40;39.49;94202.54;1703132;82;21090;-51
2022/06/20 08:25:27;;;;;;;4.53;3.05;;;;;;;27.48;39.40;94206.08;1711224;82;21052;-52
2022/06/20 08:28:03;;;;;;;4.78;2.98;;;;;;;27.56;39.36;94197.66;1673172;82;21032;-52
2022/06/20 08:30:53;;;;;;;3.87;2.25;;;;;;;27.66;38.98;94202.05;1681520;82;21053;-52
2022/06/20 08:33:28;;;;;;;7.50;3.83;;;;;;;27.71;38.22;94197.62;1680552;82;21888;-53
2022/06/20 08:36:16;;;;;;;4.65;2.42;;;;;;;27.75;38.19;94199.40;1673373;85;20977;-52
2022/06/20 08:38:54;;;;;;;6.72;2.83;;;;;;;27.78;37.74;94196.83;1702764;82;21546;-56
2022/06/20 08:41:45;;;;;;;4.03;2.40;;;;;;;27.81;38.41;94191.44;1680446;83;21374;-52
2022/06/20 08:44:52;;;;;;;7.65;2.87;;;;;;;27.91;38.27;94199.42;1689476;83;21596;-53
2022/06/20 08:47:44;;;;;;;5.00;2.42;;;;;;;28.01;38.67;94186.17;1695757;83;21289;-52
2022/06/20 08:50:53;;;;;;;5.35;3.00;;;;;;;28.16;38.27;94191.72;1686881;83;21086;-53
2022/06/20 08:53:55;;;;;;;4.95;2.42;;;;;;;28.28;38.36;94183.64;1696166;83;21426;-53
2022/06/20 08:57:00;;;;;;;4.62;2.47;;;;;;;28.40;37.06;94168.39;1704766;81;21040;-51
2022/06/20 08:59:58;;;;;;;4.70;2.72;;;;;;;28.44;37.42;94172.98;1717817;81;21039;-53
2022/06/20 09:02:55;;;;;;;4.65;2.35;;;;;;;28.49;37.04;94164.27;1716031;82;21441;-57
2022/06/20 09:05:57;;;;;;;8.50;6.08;;;;;;;28.55;36.76;94163.35;1717309;82;21145;-53
2022/06/20 09:08:43;;;;;;;12.30;3.08;;;;;;;28.64;36.28;94163.37;1692206;81;20999;-59
2022/06/20 09:11:48;;;;;;;6.45;2.62;;;;;;;28.70;36.16;94158.22;1720404;81;21055;-55
2022/06/20 09:14:42;;;;;;;10.35;2.50;;;;;;;28.80;36.37;94163.33;1715005;81;21092;-56
2022/06/20 09:17:25;;;;;;;6.03;1.98;;;;;;;28.90;36.29;94154.28;1679395;81;21887;-59
2022/06/20 09:20:03;;;;;;;10.58;2.12;;;;;;;29.06;35.48;94148.55;1681085;83;22250;-52
2022/06/20 09:23:18;;;;;;;7.25;2.47;;;;;;;29.16;35.54;94150.13;1708803;83;20986;-53
2022/06/20 09:25:59;;;;;;;7.50;2.60;;;;;;;29.18;34.95;94142.48;1703169;83;21066;-52
2022/06/20 09:29:05;;;;;;;9.30;2.80;;;;;;;29.22;35.11;94138.55;1703347;82;21077;-52
2022/06/20 09:32:06;;;;;;;3.35;1.85;;;;;;;29.31;35.12;94139.31;1703422;82;21225;-53
2022/06/20 09:34:57;;;;;;;3.40;2.02;;;;;;;29.41;34.05;94131.63;1695525;83;21019;-51
2022/06/20 09:37:42;;;;;;;9.55;2.22;;;;;;;29.44;34.56;94119.88;1702978;81;20999;-55
2022/06/20 09:40:23;;;;;;;9.30;2.40;;;;;;;29.40;34.74;94126.64;1719547;82;21078;-52
2022/06/20 09:43:06;;;;;;;7.80;3.45;;;;;;;29.46;34.90;94117.87;1717317;80;21063;-51
2022/06/20 09:45:54;;;;;;;4.50;2.15;;;;;;;29.57;34.49;94114.54;1752617;80;21739;-56
2022/06/20 09:48:51;;;;;;;11.53;3.77;;;;;;;29.67;34.04;94109.69;1713422;80;21475;-52
2022/06/20 09:52:08;;;;;;;7.17;2.20;;;;;;;29.72;33.65;94109.41;1736351;80;21089;-53
2022/06/20 09:55:06;;;;;;;4.75;2.10;;;;;;;29.80;34.05;94107.23;1749011;80;21034;-55
2022/06/20 09:57:55;;;;;;;3.47;2.33;;;;;;;29.92;33.18;94107.52;1726872;80;21033;-53
2022/06/20 10:00:33;;;;;;;6.92;2.22;;;;;;;29.98;32.98;94108.67;1731035;81;21248;-52
2022/06/20 10:03:12;;;;;;;8.15;2.40;;;;;;;30.00;33.61;94109.59;1712008;82;20967;-51
2022/06/20 10:06:10;;;;;;;8.08;2.33;;;;;;;30.03;33.02;94104.18;1684207;84;21102;-51
2022/06/20 10:09:04;;;;;;;8.15;2.83;;;;;;;30.07;33.38;94094.56;1732737;82;21074;-53
2022/06/20 10:11:52;;;;;;;7.03;2.30;;;;;;;30.11;33.02;94096.28;1691099;83;21021;-51
2022/06/20 10:14:59;;;;;;;2.58;1.82;;;;;;;30.21;33.28;94097.09;1713904;81;21119;-50
2022/06/20 10:17:38;;;;;;;5.17;2.05;;;;;;;30.28;32.12;94091.95;1730979;81;20976;-50
2022/06/20 10:20:43;;;;;;;11.55;3.02;;;;;;;30.33;32.63;94088.77;1726613;81;21108;-50
2022/06/20 10:23:30;;;;;;;9.20;2.05;;;;;;;30.39;32.23;94094.24;1705609;84;21053;-51
2022/06/20 10:26:32;;;;;;;8.30;2.50;;;;;;;30.44;32.04;94081.84;1711405;82;20966;-54
2022/06/20 10:29:28;;;;;;;9.23;2.40;;;;;;;30.48;32.04;94089.25;1710964;82;21186;-51
2022/06/20 10:32:10;;;;;;;4.67;2.35;;;;;;;30.62;31.85;94081.09;1702135;82;21368;-52
2022/06/20 10:35:00;;;;;;;7.78;2.72;;;;;;;30.76;31.77;94080.09;1730120;82;21019;-52
2022/06/20 10:37:55;;;;;;;8.50;3.52;;;;;;;30.89;31.63;94076.80;1685190;85;21051;-52
2022/06/20 10:40:34;;;;;;;12.70;3.00;;;;;;;31.11;31.17;94071.41;1714192;82;21868;-52
2022/06/20 10:43:15;;;;;;;5.97;2.02;;;;;;;31.34;30.78;94070.92;1706952;84;21224;-52
2022/06/20 10:46:01;;;;;;;7.25;2.62;;;;;;;31.54;29.64;94066.71;1657409;85;21062;-50
2022/06/20 10:48:58;;;;;;;19.95;7.25;;;;;;;31.75;29.69;94063.34;1663502;84;21109;-53
2022/06/20 10:51:40;;;;;;;8.38;2.17;;;;;;;31.95;29.92;94057.66;1708135;83;21527;-53
2022/06/20 10:54:20;;;;;;;9.65;2.47;;;;;;;32.23;29.19;94059.69;1693705;84;21077;-51
2022/06/20 10:57:28;;;;;;;7.60;2.40;;;;;;;32.50;28.61;94053.02;1707899;84;21137;-51
2022/06/20 11:00:15;;;;;;;8.30;1.95;;;;;;;32.71;28.05;94043.10;1700651;83;21258;-54
2022/06/20 11:03:15;;;;;;;4.65;1.80;;;;;;;32.88;27.89;94047.11;1701963;83;21109;-55
2022/06/20 11:05:55;;;;;;;9.48;2.67;;;;;;;33.06;28.62;94043.39;1693474;84;21047;-57
2022/06/20 11:08:54;;;;;;;5.28;2.22;;;;;;;33.31;28.26;94042.91;1701113;83;21062;-55
2022/06/20 11:12:09;;;;;;;4.65;2.30;;;;;;;33.54;28.01;94045.84;1676398;84;21157;-53
2022/06/20 11:14:57;;;;;;;4.70;2.05;;;;;;;33.73;27.06;94037.12;1689725;83;21002;-54
2022/06/20 11:17:48;;;;;;;4.42;1.80;;;;;;;33.88;26.76;94030.95;1650068;84;21127;-57
2022/06/20 11:20:45;;;;;;;3.67;2.35;;;;;;;34.13;26.72;94032.59;1699698;83;21550;-56
2022/06/20 11:23:26;;;;;;;6.67;2.30;;;;;;;34.43;26.93;94025.92;1692663;83;21174;-56
2022/06/20 11:26:17;;;;;;;7.58;2.12;;;;;;;34.76;25.78;94029.41;1698199;83;21883;-55
2022/06/20 11:28:53;;;;;;;4.17;1.90;;;;;;;35.05;25.56;94018.25;1696140;83;21082;-52
2022/06/20 11:31:52;;;;;;;5.62;1.60;;;;;;;35.33;25.03;94027.09;1693911;83;21031;-55
2022/06/20 11:34:54;;;;;;;2.25;1.70;;;;;;;35.50;24.94;94017.30;1690855;84;21062;-53
2022/06/20 11:37:53;;;;;;;3.10;1.67;;;;;;;35.73;24.31;94012.91;1691752;83;21804;-55
2022/06/20 11:40:50;;;;;;;4.53;2.47;;;;;;;35.97;24.19;94016.44;1692953;83;21160;-54
2022/06/20 11:44:06;;;;;;;8.45;1.90;;;;;;;36.32;25.14;94008.36;1699048;83;21497;-53
2022/06/20 11:47:20;;;;;;;2.90;1.92;;;;;;;36.78;24.66;94006.56;1720781;81;21022;-53
2022/06/20 11:50:22;;;;;;;3.20;1.25;;;;;;;37.27;23.59;93996.17;1736132;81;21011;-51
2022/06/20 11:53:25;;;;;;;7.70;2.10;;;;;;;37.70;24.22;93993.33;1696321;81;21396;-54
2022/06/20 11:56:17;;;;;;;3.95;2.15;;;;;;;38.22;23.52;93992.29;1747883;81;22145;-53
2022/06/20 11:59:08;;;;;;;3.85;1.55;;;;;;;38.44;22.25;93992.57;1707712;82;21036;-55
2022/06/20 12:02:16;;;;;;;4.05;1.90;;;;;;;38.03;21.88;93992.77;1724081;81;20990;-54
2022/06/20 12:05:16;;;;;;;7.17;1.65;;;;;;;38.01;23.03;93982.61;1742554;81;21050;-53
2022/06/20 12:08:25;;;;;;;7.30;2.42;;;;;;;38.37;22.74;93990.83;1667869;84;21089;-53
2022/06/20 12:10:59;;;;;;;5.97;1.80;;;;;;;38.79;22.71;93990.62;1743596;80;21771;-53
2022/06/20 12:13:53;;;;;;;4.00;1.62;;;;;;;39.20;21.53;93980.16;1737845;81;21518;-55
2022/06/20 12:17:07;;;;;;;5.40;1.65;;;;;;;39.34;21.39;93987.28;1711719;81;21117;-55
2022/06/20 12:26:09;;;;;;;4.90;2.02;;;;;;;39.16;22.31;93964.89;1735214;80;21268;-52
2022/06/20 12:28:44;;;;;;;4.95;1.60;;;;;;;39.36;21.13;93965.77;1732189;80;21079;-51
2022/06/20 12:31:24;;;;;;;2.77;1.92;;;;;;;39.52;20.89;93954.15;1656725;83;21148;-53
2022/06/20 12:34:06;;;;;;;2.67;1.30;;;;;;;39.67;20.53;93964.19;1712700;81;21308;-54
2022/06/20 12:36:46;;;;;;;5.62;1.98;;;;;;;39.50;20.13;93962.03;1733579;80;21061;-53
2022/06/20 12:39:26;;;;;;;3.85;1.40;;;;;;;39.26;20.53;93948.05;1709328;82;21147;-54
2022/06/20 12:42:11;;;;;;;2.72;1.50;;;;;;;39.36;21.02;93949.17;1738854;80;21046;-52
2022/06/20 12:45:11;;;;;;;6.37;2.02;;;;;;;39.66;21.06;93946.11;1699155;81;21057;-52